createdAt,value
2017-09-23T00:00:57.926Z,14.10
2017-09-23T00:03:25.415Z,13.90
2017-09-23T00:05:52.887Z,13.90
2017-09-23T00:08:20.342Z,13.80
2017-09-23T00:10:47.803Z,13.80
2017-09-23T00:13:15.686Z,13.80
2017-09-23T00:15:43.555Z,13.70
2017-09-23T00:18:11.410Z,13.70
2017-09-23T00:20:39.295Z,13.60
2017-09-23T00:23:06.760Z,13.60
2017-09-23T00:25:34.216Z,13.60
2017-09-23T00:28:01.696Z,13.60
2017-09-23T00:30:29.170Z,13.70
2017-09-23T00:32:56.639Z,13.70
2017-09-23T00:35:24.895Z,13.60
2017-09-23T00:37:52.374Z,13.60
2017-09-23T00:40:20.239Z,13.30
2017-09-23T00:42:48.390Z,13.30
2017-09-23T00:45:15.850Z,13.30
2017-09-23T00:47:43.302Z,13.20
2017-09-23T00:50:10.774Z,13.30
2017-09-23T00:52:38.635Z,13.50
2017-09-23T00:55:06.495Z,13.50
2017-09-23T00:57:34.375Z,13.50
2017-09-23T01:00:02.227Z,13.50
2017-09-23T01:02:29.759Z,13.50
2017-09-23T01:04:57.438Z,13.40
2017-09-23T01:07:24.891Z,13.40
2017-09-23T01:09:52.352Z,13.50
2017-09-23T01:12:20.211Z,13.40
2017-09-23T01:14:47.668Z,13.40
2017-09-23T01:17:15.126Z,13.40
2017-09-23T01:19:42.614Z,13.40
2017-09-23T01:22:10.070Z,13.50
2017-09-23T01:24:37.528Z,13.50
2017-09-23T01:27:05.010Z,13.40
2017-09-23T01:29:32.462Z,13.30
2017-09-23T01:32:00.732Z,13.30
2017-09-23T01:34:28.531Z,13.10
2017-09-23T01:36:55.996Z,13.00
2017-09-23T01:39:23.452Z,13.00
2017-09-23T01:41:50.944Z,12.90
2017-09-23T01:44:18.386Z,12.90
2017-09-23T01:46:46.241Z,12.80
2017-09-23T01:49:14.287Z,12.80
2017-09-23T01:51:41.747Z,12.80
2017-09-23T01:54:09.198Z,12.80
2017-09-23T01:56:36.654Z,12.90
2017-09-23T01:59:04.115Z,12.90
2017-09-23T02:01:31.607Z,12.90
2017-09-23T02:03:59.076Z,12.90
2017-09-23T02:06:26.531Z,12.90
2017-09-23T02:08:54.236Z,12.80
2017-09-23T02:11:21.686Z,12.80
2017-09-23T02:13:49.153Z,12.90
2017-09-23T02:16:16.657Z,13.00
2017-09-23T02:18:44.122Z,13.10
2017-09-23T02:21:11.589Z,13.10
2017-09-23T02:23:39.366Z,13.20
2017-09-23T02:26:06.824Z,13.10
2017-09-23T02:28:34.289Z,13.10
2017-09-23T02:31:01.775Z,13.00
2017-09-23T02:33:29.632Z,13.10
2017-09-23T02:35:57.485Z,13.00
2017-09-23T02:38:25.469Z,13.00
2017-09-23T02:40:53.323Z,13.00
2017-09-23T02:43:21.174Z,13.00
2017-09-23T02:45:48.932Z,13.00
2017-09-23T02:48:16.395Z,13.00
2017-09-23T02:50:43.914Z,12.90
2017-09-23T02:53:11.411Z,12.90
2017-09-23T02:55:39.266Z,12.90
2017-09-23T02:58:06.731Z,12.90
2017-09-23T03:00:34.623Z,12.70
2017-09-23T03:03:02.083Z,12.70
2017-09-23T03:05:29.545Z,12.70
2017-09-23T03:07:57.012Z,12.70
2017-09-23T03:10:24.462Z,12.60
2017-09-23T03:12:52.890Z,12.70
2017-09-23T03:15:20.346Z,12.70
2017-09-23T03:17:47.803Z,12.60
2017-09-23T03:20:15.698Z,12.50
2017-09-23T03:22:43.157Z,12.50
2017-09-23T03:25:10.622Z,12.40
2017-09-23T03:27:38.327Z,12.50
2017-09-23T03:30:05.804Z,12.40
2017-09-23T03:32:33.666Z,12.30
2017-09-23T03:35:01.720Z,12.30
2017-09-23T03:37:29.167Z,12.30
2017-09-23T03:39:56.627Z,12.30
2017-09-23T03:42:24.387Z,12.40
2017-09-23T03:44:51.854Z,12.30
2017-09-23T03:47:19.318Z,12.20
2017-09-23T03:49:47.202Z,12.50
2017-09-23T03:52:14.654Z,12.50
2017-09-23T03:54:42.115Z,12.40
2017-09-23T03:57:09.606Z,12.30
2017-09-23T03:59:37.071Z,12.40
2017-09-23T04:02:04.527Z,12.40
2017-09-23T04:04:32.037Z,12.30
2017-09-23T04:06:59.519Z,12.30
2017-09-23T04:09:26.972Z,12.30
2017-09-23T04:11:54.646Z,12.30
2017-09-23T04:14:22.109Z,12.30
2017-09-23T04:16:49.562Z,12.20
2017-09-23T04:19:17.033Z,12.20
2017-09-23T04:21:44.496Z,12.30
2017-09-23T04:24:12.354Z,12.40
2017-09-23T04:26:39.814Z,12.30
2017-09-23T04:29:07.274Z,12.40
2017-09-23T04:31:35.437Z,12.30
2017-09-23T04:34:02.907Z,12.30
2017-09-23T04:36:30.362Z,12.30
2017-09-23T04:38:58.239Z,12.40
2017-09-23T04:41:26.091Z,12.40
2017-09-23T04:43:53.947Z,12.30
2017-09-23T04:46:21.422Z,12.30
2017-09-23T04:48:49.270Z,12.20
2017-09-23T04:51:17.126Z,12.30
2017-09-23T04:53:44.600Z,12.30
2017-09-23T04:56:12.450Z,12.30
2017-09-23T04:58:39.910Z,12.30
2017-09-23T05:01:07.799Z,12.10
2017-09-23T05:03:35.258Z,12.10
2017-09-23T05:06:02.715Z,12.20
2017-09-23T05:08:30.474Z,12.20
2017-09-23T05:10:57.934Z,12.20
2017-09-23T05:13:25.401Z,12.30
2017-09-23T05:15:53.093Z,12.30
2017-09-23T05:18:20.555Z,12.30
2017-09-23T05:20:48.021Z,12.20
2017-09-23T05:23:15.631Z,12.20
2017-09-23T05:25:43.273Z,12.10
2017-09-23T05:28:10.741Z,11.90
2017-09-23T05:30:38.194Z,11.90
2017-09-23T05:33:05.650Z,11.90
2017-09-23T05:35:33.901Z,12.10
2017-09-23T05:38:02.246Z,12.10
2017-09-23T05:40:29.702Z,12.20
2017-09-23T05:42:57.433Z,12.30
2017-09-23T05:45:24.935Z,12.40
2017-09-23T05:47:52.397Z,12.30
2017-09-23T05:50:20.246Z,12.10
2017-09-23T05:52:47.703Z,12.10
2017-09-23T05:55:15.167Z,12.20
2017-09-23T05:57:42.910Z,12.40
2017-09-23T06:00:10.365Z,12.40
2017-09-23T06:02:37.824Z,12.20
2017-09-23T06:05:05.292Z,11.90
2017-09-23T06:07:33.151Z,11.50
2017-09-23T06:10:00.601Z,11.50
2017-09-23T06:12:28.082Z,11.50
2017-09-23T06:14:55.929Z,11.80
2017-09-23T06:17:23.786Z,11.80
2017-09-23T06:19:51.365Z,11.80
2017-09-23T06:22:19.219Z,12.00
2017-09-23T06:24:47.077Z,12.30
2017-09-23T06:27:14.642Z,12.30
2017-09-23T06:29:42.498Z,12.50
2017-09-23T06:32:09.946Z,12.50
2017-09-23T06:34:37.413Z,12.60
2017-09-23T06:37:04.870Z,12.80
2017-09-23T06:39:32.329Z,12.80
2017-09-23T06:42:00.066Z,12.80
2017-09-23T06:44:27.526Z,12.60
2017-09-23T06:46:54.981Z,12.60
2017-09-23T06:49:22.477Z,12.90
2017-09-23T06:51:49.931Z,12.90
2017-09-23T06:54:17.898Z,12.80
2017-09-23T06:56:46.965Z,13.10
2017-09-23T06:59:14.446Z,13.10
2017-09-23T07:01:42.297Z,13.20
2017-09-23T07:04:10.150Z,13.40
2017-09-23T07:06:37.643Z,13.40
2017-09-23T07:09:05.109Z,13.50
2017-09-23T07:11:32.570Z,13.70
2017-09-23T07:14:00.221Z,13.90
2017-09-23T07:16:27.671Z,14.00
2017-09-23T07:18:55.142Z,14.10
2017-09-23T07:21:22.611Z,14.10
2017-09-23T07:23:50.103Z,14.20
2017-09-23T07:26:17.554Z,14.30
2017-09-23T07:28:45.006Z,14.40
2017-09-23T07:31:12.958Z,14.20
2017-09-23T07:33:40.423Z,14.30
2017-09-23T07:36:07.884Z,14.30
2017-09-23T07:38:35.370Z,14.30
2017-09-23T07:41:02.849Z,14.00
2017-09-23T07:43:30.307Z,14.50
2017-09-23T07:45:57.766Z,14.80
2017-09-23T07:48:25.453Z,14.90
2017-09-23T07:50:52.909Z,15.10
2017-09-23T07:53:20.366Z,15.40
2017-09-23T07:55:47.854Z,15.40
2017-09-23T07:58:15.711Z,15.40
2017-09-23T08:00:43.570Z,15.50
2017-09-23T08:03:11.441Z,15.60
2017-09-23T08:05:39.307Z,15.50
2017-09-23T08:08:06.773Z,15.50
2017-09-23T08:10:34.270Z,15.60
2017-09-23T08:13:01.721Z,15.70
2017-09-23T08:15:29.182Z,15.80
2017-09-23T08:17:56.680Z,16.00
2017-09-23T08:20:24.529Z,15.80
2017-09-23T08:22:51.986Z,15.90
2017-09-23T08:25:19.462Z,16.20
2017-09-23T08:27:47.314Z,16.60
2017-09-23T08:30:14.769Z,16.60
2017-09-23T08:32:42.681Z,16.80
2017-09-23T08:35:10.134Z,16.80
2017-09-23T08:37:37.595Z,16.50
2017-09-23T08:40:05.071Z,16.20
2017-09-23T08:42:32.544Z,16.10
2017-09-23T08:44:59.998Z,16.20
2017-09-23T08:47:27.758Z,16.40
2017-09-23T08:49:55.214Z,16.40
2017-09-23T08:52:22.670Z,16.40
2017-09-23T08:54:50.166Z,16.70
2017-09-23T08:57:17.629Z,16.80
2017-09-23T08:59:45.079Z,17.20
2017-09-23T09:02:13.619Z,17.30
2017-09-23T09:04:41.072Z,17.20
2017-09-23T09:07:08.522Z,17.30
2017-09-23T09:09:36.381Z,17.30
2017-09-23T09:12:03.849Z,17.50
2017-09-23T09:14:31.306Z,17.60
2017-09-23T09:16:59.058Z,17.70
2017-09-23T09:19:26.513Z,17.30
2017-09-23T09:21:53.969Z,17.40
2017-09-23T09:24:21.429Z,17.70
2017-09-23T09:26:48.881Z,17.70
2017-09-23T09:29:16.445Z,17.70
2017-09-23T09:31:43.902Z,17.80
2017-09-23T09:34:11.382Z,18.00
2017-09-23T09:36:38.969Z,17.70
2017-09-23T09:39:06.425Z,17.90
2017-09-23T09:41:33.878Z,18.10
2017-09-23T09:44:01.527Z,18.20
2017-09-23T09:46:29.005Z,18.10
2017-09-23T09:48:56.467Z,18.20
2017-09-23T09:51:23.963Z,18.20
2017-09-23T09:53:51.808Z,19.00
2017-09-23T09:56:19.272Z,19.00
2017-09-23T09:58:46.748Z,19.30
2017-09-23T10:01:14.591Z,19.10
2017-09-23T10:03:42.044Z,19.10
2017-09-23T10:06:09.798Z,19.10
2017-09-23T10:08:37.245Z,19.30
2017-09-23T10:11:04.706Z,19.50
2017-09-23T10:13:39.270Z,19.50
2017-09-23T10:16:06.786Z,19.20
2017-09-23T10:18:34.244Z,18.80
2017-09-23T10:21:01.898Z,18.80
2017-09-23T10:23:29.351Z,19.20
2017-09-23T10:25:56.805Z,19.50
2017-09-23T10:28:24.275Z,20.00
2017-09-23T10:30:51.722Z,20.40
2017-09-23T10:33:19.180Z,20.50
2017-09-23T10:35:47.182Z,20.80
2017-09-23T10:38:14.632Z,20.80
2017-09-23T10:40:42.483Z,22.00
2017-09-23T10:43:09.962Z,22.00
2017-09-23T10:45:37.424Z,21.80
2017-09-23T10:48:04.881Z,22.20
2017-09-23T10:50:32.654Z,23.20
2017-09-23T10:53:00.105Z,23.90
2017-09-23T10:55:27.562Z,23.70
2017-09-23T10:57:55.037Z,24.40
2017-09-23T11:00:22.499Z,24.80
2017-09-23T11:02:49.946Z,25.00
2017-09-23T11:05:17.417Z,25.40
2017-09-23T11:07:44.866Z,25.60
2017-09-23T11:10:12.317Z,25.10
2017-09-23T11:12:39.882Z,25.10
2017-09-23T11:15:07.335Z,25.20
2017-09-23T11:17:34.791Z,25.30
2017-09-23T11:20:02.475Z,25.80
2017-09-23T11:22:29.916Z,26.60
2017-09-23T11:24:57.369Z,26.50
2017-09-23T11:27:24.933Z,26.70
2017-09-23T11:29:52.390Z,27.40
2017-09-23T11:32:19.843Z,27.80
2017-09-23T11:34:47.303Z,27.90
2017-09-23T11:37:15.158Z,27.90
2017-09-23T11:39:42.632Z,27.90
2017-09-23T11:42:10.078Z,26.70
2017-09-23T11:44:37.531Z,26.80
2017-09-23T11:47:05.013Z,27.60
2017-09-23T11:49:32.860Z,29.10
2017-09-23T11:52:00.718Z,29.60
2017-09-23T11:54:28.603Z,29.60
2017-09-23T11:56:56.460Z,29.60
2017-09-23T11:59:24.314Z,30.60
2017-09-23T12:01:52.068Z,30.60
2017-09-23T12:04:19.531Z,30.70
2017-09-23T12:06:47.388Z,30.70
2017-09-23T12:09:14.872Z,30.70
2017-09-23T12:11:42.336Z,31.60
2017-09-23T12:14:09.807Z,31.80
2017-09-23T12:16:37.618Z,31.40
2017-09-23T12:19:05.076Z,31.60
2017-09-23T12:21:32.538Z,31.80
2017-09-23T12:24:00.421Z,24.50
2017-09-23T12:26:28.283Z,23.70
2017-09-23T12:28:56.139Z,23.40
2017-09-23T12:31:24.026Z,23.20
2017-09-23T12:33:51.587Z,23.30
2017-09-23T12:36:19.042Z,26.30
2017-09-23T12:38:46.532Z,25.70
2017-09-23T12:41:13.998Z,28.30
2017-09-23T12:43:41.455Z,29.20
2017-09-23T12:46:09.213Z,29.60
2017-09-23T12:48:36.688Z,29.10
2017-09-23T12:51:04.138Z,30.30
2017-09-23T12:53:31.631Z,31.00
2017-09-23T12:55:59.104Z,30.80
2017-09-23T12:58:26.566Z,31.20
2017-09-23T13:00:54.063Z,31.30
2017-09-23T13:03:21.522Z,29.30
2017-09-23T13:05:48.982Z,26.90
2017-09-23T13:08:16.964Z,24.50
2017-09-23T13:10:44.822Z,24.30
2017-09-23T13:13:12.691Z,23.90
2017-09-23T13:15:40.572Z,23.60
2017-09-23T13:18:08.037Z,23.60
2017-09-23T13:20:35.497Z,23.80
2017-09-23T13:23:02.965Z,25.20
2017-09-23T13:25:30.439Z,26.70
2017-09-23T13:27:58.171Z,27.90
2017-09-23T13:30:25.631Z,29.40
2017-09-23T13:32:53.090Z,30.00
2017-09-23T13:35:20.584Z,29.70
2017-09-23T13:37:48.055Z,28.90
2017-09-23T13:40:15.918Z,28.00
2017-09-23T13:42:43.447Z,27.90
2017-09-23T13:45:10.897Z,26.10
2017-09-23T13:47:38.388Z,25.20
2017-09-23T13:50:06.557Z,27.40
2017-09-23T13:52:34.015Z,27.40
2017-09-23T13:55:01.870Z,27.60
2017-09-23T13:57:29.381Z,27.60
2017-09-23T13:59:56.841Z,27.70
2017-09-23T14:02:24.294Z,27.60
2017-09-23T14:04:51.790Z,26.60
2017-09-23T14:07:19.246Z,24.90
2017-09-23T14:09:47.119Z,23.00
2017-09-23T14:12:15.274Z,22.50
2017-09-23T14:14:42.736Z,22.50
2017-09-23T14:17:10.208Z,22.10
2017-09-23T14:19:38.090Z,22.40
2017-09-23T14:22:05.546Z,22.40
2017-09-23T14:24:33.008Z,22.50
2017-09-23T14:27:00.475Z,22.40
2017-09-23T14:29:27.939Z,22.40
2017-09-23T14:31:55.398Z,22.30
2017-09-23T14:34:22.859Z,22.10
2017-09-23T14:36:50.318Z,22.00
2017-09-23T14:39:17.800Z,21.90
2017-09-23T14:41:45.670Z,21.70
2017-09-23T14:44:13.534Z,21.80
2017-09-23T14:46:41.636Z,21.70
2017-09-23T14:49:09.112Z,21.70
2017-09-23T14:51:36.611Z,21.60
2017-09-23T14:54:04.071Z,21.40
2017-09-23T14:56:31.965Z,21.50
2017-09-23T14:58:59.463Z,21.50
2017-09-23T15:01:27.242Z,21.50
2017-09-23T15:03:54.708Z,21.50
2017-09-23T15:06:22.298Z,21.80
2017-09-23T15:08:49.798Z,22.30
2017-09-23T15:11:17.262Z,22.20
2017-09-23T15:13:44.731Z,23.30
2017-09-23T15:16:12.187Z,24.80
2017-09-23T15:18:39.834Z,25.70
2017-09-23T15:21:07.306Z,25.90
2017-09-23T15:23:36.475Z,25.20
2017-09-23T15:26:04.253Z,25.20
2017-09-23T15:28:31.783Z,25.00
2017-09-23T15:31:01.676Z,25.10
2017-09-23T15:33:29.352Z,23.70
2017-09-23T15:35:59.156Z,23.20
2017-09-23T15:38:26.654Z,23.20
2017-09-23T15:40:54.136Z,23.50
2017-09-23T15:43:21.982Z,22.30
2017-09-23T15:45:49.874Z,22.00
2017-09-23T15:48:17.512Z,22.00
2017-09-23T15:50:45.367Z,21.40
2017-09-23T15:53:13.558Z,21.10
2017-09-23T15:55:41.119Z,21.10
2017-09-23T15:58:08.958Z,21.10
2017-09-23T16:00:36.411Z,21.10
2017-09-23T16:03:04.179Z,20.80
2017-09-23T16:05:31.719Z,20.70
2017-09-23T16:07:59.174Z,20.70
2017-09-23T16:10:26.962Z,20.60
2017-09-23T16:12:54.979Z,20.10
2017-09-23T16:15:22.426Z,20.10
2017-09-23T16:17:50.170Z,20.20
2017-09-23T16:20:17.678Z,20.20
2017-09-23T16:22:47.898Z,20.10
2017-09-23T16:33:59.249Z,19.20
2017-09-23T16:36:27.609Z,19.00
2017-09-23T17:15:12.927Z,17.70
2017-09-23T17:17:40.784Z,17.70
2017-09-23T17:20:08.636Z,17.70
2017-09-23T17:22:36.122Z,17.70
2017-09-23T17:25:03.599Z,17.60
2017-09-23T17:27:31.060Z,17.50
2017-09-23T17:29:58.531Z,17.50
2017-09-23T17:32:26.191Z,17.40
2017-09-23T17:34:53.647Z,17.30
2017-09-23T17:37:21.114Z,17.20
2017-09-23T17:39:48.588Z,17.10
2017-09-23T17:42:16.507Z,17.10
2017-09-23T17:44:43.970Z,17.10
2017-09-23T17:47:11.450Z,17.00
2017-09-23T17:49:38.938Z,17.00
2017-09-23T17:52:06.795Z,16.90
2017-09-23T17:54:34.652Z,17.00
2017-09-23T17:57:02.552Z,17.20
2017-09-23T17:59:30.019Z,17.10
2017-09-23T18:01:57.567Z,17.20
2017-09-23T18:04:25.067Z,17.10
2017-09-23T18:06:52.541Z,17.20
2017-09-23T18:09:20.126Z,17.20
2017-09-23T18:11:48.613Z,17.30
2017-09-23T18:14:16.078Z,17.20
2017-09-23T18:16:43.806Z,17.00
2017-09-23T18:19:11.659Z,16.80
2017-09-23T18:21:39.667Z,16.60
2017-09-23T18:24:07.169Z,16.60
2017-09-23T18:26:34.628Z,16.40
2017-09-23T18:29:02.086Z,16.30
2017-09-23T18:31:29.547Z,16.00
2017-09-23T18:33:57.403Z,16.50
2017-09-23T18:36:24.891Z,16.60
2017-09-23T18:38:52.351Z,16.60
2017-09-23T18:41:19.922Z,16.60
2017-09-23T18:43:47.727Z,16.60
2017-09-23T18:46:15.187Z,16.60
2017-09-23T18:48:42.646Z,16.70
2017-09-23T18:51:10.139Z,16.60
2017-09-23T18:53:37.607Z,16.60
2017-09-23T18:56:05.107Z,16.60
2017-09-23T18:58:32.568Z,16.60
2017-09-23T19:01:00.450Z,16.60
2017-09-23T19:03:27.987Z,16.60
2017-09-23T19:05:55.470Z,16.40
2017-09-23T19:08:23.517Z,16.50
2017-09-23T19:10:51.164Z,16.50
2017-09-23T19:13:18.796Z,16.50
2017-09-23T19:15:46.476Z,16.40
2017-09-23T19:18:14.048Z,16.40
2017-09-23T19:20:41.658Z,16.30
2017-09-23T19:23:09.301Z,16.30
2017-09-23T19:25:36.830Z,16.20
2017-09-23T19:28:04.813Z,15.90
2017-09-23T19:30:32.420Z,15.90
2017-09-23T19:33:00.000Z,15.90
2017-09-23T19:35:27.592Z,15.80
2017-09-23T19:37:55.128Z,15.80
2017-09-23T19:40:23.038Z,15.80
2017-09-23T19:42:50.595Z,15.80
2017-09-23T19:45:18.209Z,15.70
2017-09-23T19:47:46.094Z,15.50
2017-09-23T19:50:14.047Z,15.50
2017-09-23T19:52:41.927Z,15.60
2017-09-23T19:55:09.832Z,15.60
2017-09-23T19:57:37.323Z,15.60
2017-09-23T20:00:05.215Z,15.60
2017-09-23T20:02:33.899Z,15.60
2017-09-23T20:05:01.770Z,15.70
2017-09-23T20:07:29.254Z,15.70
2017-09-23T20:09:56.935Z,15.70
2017-09-23T20:12:24.423Z,15.50
2017-09-23T20:14:52.327Z,15.40
2017-09-23T20:17:19.846Z,15.40
2017-09-23T20:19:48.564Z,15.30
2017-09-23T20:22:16.043Z,15.30
2017-09-23T20:24:43.732Z,15.30
2017-09-23T20:27:11.201Z,15.20
2017-09-23T20:29:39.055Z,15.30
2017-09-23T20:32:06.807Z,15.30
2017-09-23T20:34:34.269Z,15.20
2017-09-23T20:37:01.722Z,15.20
2017-09-23T20:39:29.191Z,15.10
2017-09-23T20:41:57.052Z,15.30
2017-09-23T20:44:24.838Z,15.30
2017-09-23T20:46:52.312Z,15.40
2017-09-23T20:49:19.770Z,15.40
2017-09-23T20:51:47.260Z,15.30
2017-09-23T20:54:14.723Z,15.30
2017-09-23T20:56:42.189Z,15.30
2017-09-23T20:59:09.784Z,15.30
2017-09-23T21:01:37.243Z,14.90
2017-09-23T21:04:04.707Z,15.10
2017-09-23T21:06:32.220Z,15.20
2017-09-23T21:09:00.089Z,15.10
2017-09-23T21:11:27.946Z,15.00
2017-09-23T21:13:55.911Z,14.60
2017-09-23T21:16:23.374Z,14.60
2017-09-23T21:18:51.228Z,14.90
2017-09-23T21:21:18.719Z,14.90
2017-09-23T21:23:46.186Z,15.00
2017-09-23T21:26:13.651Z,14.60
2017-09-23T21:28:41.118Z,14.70
2017-09-23T21:31:08.582Z,14.80
2017-09-23T21:33:36.099Z,14.80
2017-09-23T21:36:03.558Z,14.90
2017-09-23T21:38:31.018Z,14.90
2017-09-23T21:40:58.519Z,14.80
2017-09-23T21:43:25.992Z,14.90
2017-09-23T21:45:53.856Z,15.00
2017-09-23T21:48:21.759Z,14.90
2017-09-23T21:50:49.218Z,14.90
2017-09-23T21:53:16.679Z,14.70
2017-09-23T21:55:44.147Z,14.80
2017-09-23T21:58:11.607Z,14.70
2017-09-23T22:00:39.099Z,14.60
2017-09-23T22:03:06.962Z,14.70
2017-09-23T22:05:34.813Z,14.80
2017-09-23T22:08:02.392Z,14.80
2017-09-23T22:10:30.251Z,14.90
2017-09-23T22:12:58.107Z,15.00
2017-09-23T22:15:26.265Z,15.00
2017-09-23T22:17:53.735Z,15.00
2017-09-23T22:20:21.191Z,15.00
2017-09-23T22:22:49.063Z,15.10
2017-09-23T22:25:16.919Z,15.10
2017-09-23T22:27:44.784Z,15.10
2017-09-23T22:30:12.374Z,15.10
2017-09-23T22:32:39.840Z,15.20
2017-09-23T22:35:07.307Z,15.20
2017-09-23T22:37:34.816Z,15.10
2017-09-23T22:40:02.669Z,15.10
2017-09-23T22:42:30.131Z,15.10
2017-09-23T22:44:57.590Z,15.10
2017-09-23T22:47:25.489Z,15.10
2017-09-23T22:49:52.957Z,15.10
2017-09-23T22:52:20.422Z,15.00
2017-09-23T22:54:48.212Z,15.00
2017-09-23T22:57:15.670Z,15.00
2017-09-23T22:59:43.131Z,14.90
2017-09-23T23:02:10.594Z,15.00
2017-09-23T23:04:38.444Z,15.00
2017-09-23T23:07:05.911Z,14.90
2017-09-23T23:09:33.367Z,14.90
2017-09-23T23:12:01.237Z,14.90
2017-09-23T23:14:29.094Z,15.00
2017-09-23T23:16:56.555Z,15.00
2017-09-23T23:19:24.711Z,15.00
2017-09-23T23:21:52.175Z,15.00
2017-09-23T23:24:19.630Z,15.00
2017-09-23T23:26:47.377Z,15.00
2017-09-23T23:29:14.838Z,15.00
2017-09-23T23:31:42.302Z,15.00
2017-09-23T23:34:10.047Z,15.00
2017-09-23T23:36:37.506Z,15.10
2017-09-23T23:39:04.971Z,15.00
2017-09-23T23:41:32.827Z,15.00
2017-09-23T23:44:00.283Z,15.00
2017-09-23T23:46:27.755Z,15.10
2017-09-23T23:48:55.226Z,15.00
2017-09-23T23:51:23.204Z,15.10
2017-09-23T23:53:50.667Z,15.10
2017-09-23T23:56:18.314Z,15.00
2017-09-23T23:58:45.780Z,15.00
